createdAt,value
2018-11-25T00:01:45.384Z,97335.00
2018-11-25T00:04:15.780Z,97338.00
2018-11-25T00:06:46.099Z,97341.00
2018-11-25T00:09:16.503Z,97344.00
2018-11-25T00:11:46.785Z,97341.00
2018-11-25T00:14:17.336Z,97343.00
2018-11-25T00:16:47.838Z,97342.00
2018-11-25T00:19:18.133Z,97342.00
2018-11-25T00:21:48.552Z,97348.00
2018-11-25T00:24:19.551Z,97347.00
2018-11-25T00:26:49.834Z,97340.00
2018-11-25T00:29:20.299Z,97345.00
2018-11-25T00:31:50.698Z,97339.00
2018-11-25T00:34:21.016Z,97346.00
2018-11-25T00:36:51.311Z,97339.00
2018-11-25T00:39:21.786Z,97344.00
2018-11-25T00:41:52.220Z,97336.00
2018-11-25T00:44:22.782Z,97334.00
2018-11-25T00:46:53.168Z,97323.00
2018-11-25T00:49:23.457Z,97326.00
2018-11-25T00:51:53.922Z,97328.00
2018-11-25T00:54:24.366Z,97332.00
2018-11-25T00:56:54.777Z,97328.00
2018-11-25T00:59:25.048Z,97328.00
2018-11-25T01:01:55.314Z,97323.00
2018-11-25T01:04:25.788Z,97329.00
2018-11-25T01:06:56.062Z,97326.00
2018-11-25T01:09:26.380Z,97324.00
2018-11-25T01:11:56.829Z,97317.00
2018-11-25T01:14:27.232Z,97315.00
2018-11-25T01:16:57.547Z,97317.00
2018-11-25T01:19:28.000Z,97310.00
2018-11-25T01:21:58.320Z,97308.00
2018-11-25T01:24:28.781Z,97303.00
2018-11-25T01:26:59.030Z,97298.00
2018-11-25T01:29:29.438Z,97293.00
2018-11-25T01:31:59.958Z,97281.00
2018-11-25T01:34:30.151Z,97273.00
2018-11-25T01:37:00.579Z,97288.00
2018-11-25T01:39:31.042Z,97291.00
2018-11-25T01:42:01.544Z,97275.00
2018-11-25T01:44:32.083Z,97266.00
2018-11-25T01:47:02.286Z,97263.00
2018-11-25T01:49:32.677Z,97256.00
2018-11-25T01:52:03.137Z,97261.00
2018-11-25T01:54:33.505Z,97264.00
2018-11-25T01:57:03.809Z,97257.00
2018-11-25T01:59:34.144Z,97260.00
2018-11-25T02:02:04.629Z,97255.00
2018-11-25T02:04:34.851Z,97252.00
2018-11-25T02:07:05.288Z,97245.00
2018-11-25T02:09:35.775Z,97241.00
2018-11-25T02:12:06.323Z,97241.00
2018-11-25T02:14:36.810Z,97244.00
2018-11-25T02:17:07.207Z,97252.00
2018-11-25T02:19:37.512Z,97242.00
2018-11-25T02:22:07.995Z,97238.00
2018-11-25T02:24:38.405Z,97233.00
2018-11-25T02:27:08.691Z,97232.00
2018-11-25T02:29:39.019Z,97228.00
2018-11-25T02:32:09.355Z,97219.00
2018-11-25T02:34:39.933Z,97212.00
2018-11-25T02:37:10.088Z,97200.00
2018-11-25T02:39:40.657Z,97200.00
2018-11-25T02:42:11.276Z,97205.00
2018-11-25T02:44:41.630Z,97206.00
2018-11-25T02:47:12.810Z,97208.00
2018-11-25T02:49:43.105Z,97204.00
2018-11-25T02:52:13.684Z,97199.00
2018-11-25T02:54:44.163Z,97194.00
2018-11-25T02:57:14.489Z,97195.00
2018-11-25T02:59:44.919Z,97195.00
2018-11-25T03:02:15.383Z,97192.00
2018-11-25T03:04:45.871Z,97192.00
2018-11-25T03:07:16.112Z,97194.00
2018-11-25T03:09:46.409Z,97201.00
2018-11-25T03:12:16.808Z,97207.00
2018-11-25T03:14:47.262Z,97206.00
2018-11-25T03:17:17.770Z,97202.00
2018-11-25T03:19:48.069Z,97208.00
2018-11-25T03:22:18.399Z,97209.00
2018-11-25T03:24:48.867Z,97206.00
2018-11-25T03:27:19.054Z,97212.00
2018-11-25T03:29:49.434Z,97206.00
2018-11-25T03:32:19.636Z,97208.00
2018-11-25T03:34:50.158Z,97204.00
2018-11-25T03:37:20.568Z,97203.00
2018-11-25T03:39:50.942Z,97204.00
2018-11-25T03:42:21.216Z,97198.00
2018-11-25T03:44:51.650Z,97194.00
2018-11-25T03:47:22.000Z,97195.00
2018-11-25T03:49:52.504Z,97189.00
2018-11-25T03:52:22.931Z,97192.00
2018-11-25T03:54:53.164Z,97199.00
2018-11-25T03:57:23.567Z,97204.00
2018-11-25T03:59:53.829Z,97206.00
2018-11-25T04:02:24.063Z,97204.00
2018-11-25T04:04:54.378Z,97202.00
2018-11-25T04:07:24.531Z,97206.00
2018-11-25T04:09:54.822Z,97205.00
2018-11-25T04:12:25.111Z,97204.00
2018-11-25T04:14:55.673Z,97200.00
2018-11-25T04:17:26.146Z,97198.00
2018-11-25T04:19:56.381Z,97194.00
2018-11-25T04:22:26.655Z,97188.00
2018-11-25T04:24:57.053Z,97191.00
2018-11-25T04:27:27.516Z,97186.00
2018-11-25T04:29:57.584Z,97187.00
2018-11-25T04:32:28.006Z,97183.00
2018-11-25T04:34:58.416Z,97184.00
2018-11-25T04:37:28.783Z,97175.00
2018-11-25T04:39:59.226Z,97174.00
2018-11-25T04:42:29.512Z,97173.00
2018-11-25T04:44:59.877Z,97173.00
2018-11-25T04:47:30.100Z,97176.00
2018-11-25T04:50:00.397Z,97174.00
2018-11-25T04:52:30.830Z,97172.00
2018-11-25T04:55:01.179Z,97179.00
2018-11-25T04:57:31.433Z,97186.00
2018-11-25T05:00:01.933Z,97183.00
2018-11-25T05:02:33.102Z,97183.00
2018-11-25T05:05:03.301Z,97179.00
2018-11-25T05:07:33.704Z,97178.00
2018-11-25T05:10:04.473Z,97175.00
2018-11-25T05:12:34.967Z,97168.00
2018-11-25T05:15:05.309Z,97163.00
2018-11-25T05:17:35.927Z,97165.00
2018-11-25T05:20:08.967Z,97165.00
2018-11-25T05:22:39.435Z,97160.00
2018-11-25T05:25:13.646Z,97159.00
2018-11-25T05:27:44.464Z,97157.00
2018-11-25T05:30:24.448Z,97161.00
2018-11-25T05:32:55.344Z,97159.00
2018-11-25T05:35:25.730Z,97159.00
2018-11-25T05:37:56.223Z,97154.00
2018-11-25T05:40:26.589Z,97153.00
2018-11-25T05:42:56.992Z,97155.00
2018-11-25T05:45:27.362Z,97153.00
2018-11-25T05:47:57.969Z,97152.00
2018-11-25T05:50:28.615Z,97147.00
2018-11-25T05:52:59.480Z,97147.00
2018-11-25T05:55:30.173Z,97144.00
2018-11-25T05:58:00.754Z,97144.00
2018-11-25T06:00:33.528Z,97142.00
2018-11-25T06:03:04.165Z,97138.00
2018-11-25T06:05:34.549Z,97137.00
2018-11-25T06:08:05.155Z,97137.00
2018-11-25T06:10:35.601Z,97142.00
2018-11-25T06:13:06.137Z,97147.00
2018-11-25T06:15:36.593Z,97144.00
2018-11-25T06:18:07.073Z,97145.00
2018-11-25T06:20:37.546Z,97141.00
2018-11-25T06:23:07.953Z,97137.00
2018-11-25T06:25:38.512Z,97138.00
2018-11-25T06:28:08.771Z,97137.00
2018-11-25T06:30:39.012Z,97136.00
2018-11-25T06:33:09.316Z,97137.00
2018-11-25T06:35:39.769Z,97134.00
2018-11-25T06:38:10.025Z,97130.00
2018-11-25T06:40:40.583Z,97131.00
2018-11-25T06:43:10.773Z,97130.00
2018-11-25T06:45:41.683Z,97131.00
2018-11-25T06:48:11.878Z,97130.00
2018-11-25T06:50:42.229Z,97131.00
2018-11-25T06:53:12.440Z,97134.00
2018-11-25T06:55:42.780Z,97133.00
2018-11-25T06:58:13.401Z,97132.00
2018-11-25T07:00:43.831Z,97136.00
2018-11-25T07:03:14.238Z,97132.00
2018-11-25T07:05:44.658Z,97133.00
2018-11-25T07:08:15.117Z,97130.00
2018-11-25T07:10:45.472Z,97126.00
2018-11-25T07:13:15.601Z,97130.00
2018-11-25T07:15:46.033Z,97120.00
2018-11-25T07:18:16.402Z,97128.00
2018-11-25T07:20:46.735Z,97120.00
2018-11-25T07:23:17.155Z,97122.00
2018-11-25T07:25:47.702Z,97128.00
2018-11-25T07:28:18.751Z,97124.00
2018-11-25T07:30:48.329Z,97131.00
2018-11-25T07:33:18.857Z,97125.00
2018-11-25T07:35:49.506Z,97125.00
2018-11-25T07:38:20.142Z,97124.00
2018-11-25T07:40:50.510Z,97124.00
2018-11-25T07:43:21.007Z,97122.00
2018-11-25T07:45:51.473Z,97121.00
2018-11-25T07:48:21.710Z,97119.00
2018-11-25T07:50:52.248Z,97121.00
2018-11-25T07:53:22.608Z,97116.00
2018-11-25T07:55:52.916Z,97124.00
2018-11-25T07:58:23.175Z,97122.00
2018-11-25T08:00:53.573Z,97117.00
2018-11-25T08:03:24.226Z,97113.00
2018-11-25T08:05:54.632Z,97115.00
2018-11-25T08:08:25.138Z,97116.00
2018-11-25T08:10:55.765Z,97112.00
2018-11-25T08:13:26.095Z,97106.00
2018-11-25T08:15:56.421Z,97108.00
2018-11-25T08:18:26.756Z,97107.00
2018-11-25T08:20:57.385Z,97100.00
2018-11-25T08:23:27.759Z,97106.00
2018-11-25T08:25:58.185Z,97104.00
2018-11-25T08:28:28.548Z,97099.00
2018-11-25T08:30:58.862Z,97094.00
2018-11-25T08:33:29.180Z,97091.00
2018-11-25T08:35:59.627Z,97094.00
2018-11-25T08:38:30.054Z,97101.00
2018-11-25T08:41:00.635Z,97098.00
2018-11-25T08:43:30.956Z,97094.00
2018-11-25T08:46:01.346Z,97085.00
2018-11-25T08:48:31.755Z,97084.00
2018-11-25T08:51:02.006Z,97083.00
2018-11-25T08:53:32.429Z,97084.00
2018-11-25T08:56:03.170Z,97085.00
2018-11-25T08:58:33.636Z,97080.00
2018-11-25T09:01:04.031Z,97082.00
2018-11-25T09:03:35.326Z,97077.00
2018-11-25T09:06:05.438Z,97076.00
2018-11-25T09:08:35.934Z,97073.00
2018-11-25T09:11:06.277Z,97068.00
2018-11-25T09:13:36.711Z,97067.00
2018-11-25T09:16:07.314Z,97067.00
2018-11-25T09:18:37.618Z,97064.00
2018-11-25T09:21:08.182Z,97058.00
2018-11-25T09:23:38.479Z,97058.00
2018-11-25T09:26:08.927Z,97050.00
2018-11-25T09:28:39.317Z,97046.00
2018-11-25T09:31:09.622Z,97049.00
2018-11-25T09:33:40.088Z,97048.00
2018-11-25T09:36:10.721Z,97042.00
2018-11-25T09:38:41.129Z,97034.00
2018-11-25T09:41:11.771Z,97030.00
2018-11-25T09:43:42.118Z,97024.00
2018-11-25T09:46:12.601Z,97021.00
2018-11-25T09:48:42.924Z,97017.00
2018-11-25T09:51:13.360Z,97013.00
2018-11-25T09:53:43.902Z,97002.00
2018-11-25T09:56:14.360Z,96998.00
2018-11-25T09:58:44.720Z,96996.00
2018-11-25T10:01:21.761Z,96992.00
2018-11-25T10:03:53.181Z,96989.00
2018-11-25T10:06:23.771Z,96978.00
2018-11-25T10:08:54.354Z,96980.00
2018-11-25T10:11:24.662Z,96975.00
2018-11-25T10:13:55.118Z,96970.00
2018-11-25T10:16:25.606Z,96969.00
2018-11-25T10:18:56.091Z,96968.00
2018-11-25T10:21:26.614Z,96963.00
2018-11-25T10:23:56.860Z,96962.00
2018-11-25T10:26:30.234Z,96965.00
2018-11-25T10:29:00.659Z,96955.00
2018-11-25T10:31:30.984Z,96953.00
2018-11-25T10:34:01.365Z,96949.00
2018-11-25T10:36:31.741Z,96944.00
2018-11-25T10:39:02.000Z,96937.00
2018-11-25T10:41:32.379Z,96936.00
2018-11-25T10:44:02.591Z,96931.00
2018-11-25T10:46:32.935Z,96930.00
2018-11-25T10:49:03.256Z,96924.00
2018-11-25T10:51:33.579Z,96921.00
2018-11-25T10:54:04.100Z,96918.00
2018-11-25T10:56:34.382Z,96909.00
2018-11-25T10:59:23.100Z,96905.00
2018-11-25T11:02:19.760Z,96902.00
2018-11-25T11:05:15.419Z,96889.00
2018-11-25T11:08:09.599Z,96887.00
2018-11-25T11:11:02.509Z,96882.00
2018-11-25T11:13:56.034Z,96877.00
2018-11-25T11:16:53.952Z,96870.00
2018-11-25T11:19:49.319Z,96864.00
2018-11-25T11:22:46.641Z,96866.00
2018-11-25T11:25:42.175Z,96859.00
2018-11-25T11:28:28.464Z,96859.00
2018-11-25T11:31:13.473Z,96856.00
2018-11-25T11:33:41.829Z,96855.00
2018-11-25T11:36:12.383Z,96846.00
2018-11-25T11:38:42.702Z,96844.00
2018-11-25T11:41:13.246Z,96840.00
2018-11-25T11:43:43.559Z,96836.00
2018-11-25T11:46:14.004Z,96830.00
2018-11-25T11:48:44.786Z,96829.00
2018-11-25T11:51:15.425Z,96833.00
2018-11-25T11:53:45.937Z,96822.00
2018-11-25T11:56:16.417Z,96816.00
2018-11-25T11:58:47.031Z,96817.00
2018-11-25T12:01:17.335Z,96809.00
2018-11-25T12:03:47.983Z,96808.00
2018-11-25T12:06:18.602Z,96807.00
2018-11-25T12:08:49.147Z,96804.00
2018-11-25T12:11:19.511Z,96803.00
2018-11-25T12:13:49.888Z,96798.00
2018-11-25T12:16:20.515Z,96795.00
2018-11-25T12:18:50.982Z,96791.00
2018-11-25T12:21:21.407Z,96790.00
2018-11-25T12:23:51.820Z,96781.00
2018-11-25T12:26:22.352Z,96783.00
2018-11-25T12:28:52.821Z,96777.00
2018-11-25T12:31:22.989Z,96776.00
2018-11-25T12:33:53.503Z,96773.00
2018-11-25T12:36:23.968Z,96772.00
2018-11-25T12:38:54.640Z,96763.00
2018-11-25T12:41:25.166Z,96758.00
2018-11-25T12:43:55.810Z,96753.00
2018-11-25T12:46:26.397Z,96754.00
2018-11-25T12:48:56.661Z,96752.00
2018-11-25T12:51:27.191Z,96749.00
2018-11-25T12:53:57.642Z,96742.00
2018-11-25T12:56:28.266Z,96739.00
2018-11-25T12:58:58.853Z,96737.00
2018-11-25T13:01:29.123Z,96735.00
2018-11-25T13:04:00.142Z,96727.00
2018-11-25T13:06:30.744Z,96729.00
2018-11-25T13:09:01.195Z,96727.00
2018-11-25T13:11:31.733Z,96722.00
2018-11-25T13:14:02.082Z,96710.00
2018-11-25T13:16:32.559Z,96715.00
2018-11-25T13:19:03.696Z,96710.00
2018-11-25T13:21:34.191Z,96704.00
2018-11-25T13:24:04.676Z,96698.00
2018-11-25T13:26:35.186Z,96695.00
2018-11-25T13:29:05.950Z,96686.00
2018-11-25T13:31:36.350Z,96689.00
2018-11-25T13:34:07.794Z,96689.00
2018-11-25T13:36:38.356Z,96686.00
2018-11-25T13:39:10.826Z,96683.00
2018-11-25T13:41:41.190Z,96686.00
2018-11-25T13:44:11.794Z,96676.00
2018-11-25T13:46:42.284Z,96677.00
2018-11-25T13:49:12.708Z,96672.00
2018-11-25T13:51:43.237Z,96668.00
2018-11-25T13:54:14.081Z,96668.00
2018-11-25T13:56:44.710Z,96671.00
2018-11-25T13:59:14.930Z,96663.00
2018-11-25T14:01:45.455Z,96657.00
2018-11-25T14:04:15.820Z,96656.00
2018-11-25T14:06:46.240Z,96654.00
2018-11-25T14:09:17.515Z,96652.00
2018-11-25T14:11:48.021Z,96645.00
2018-11-25T14:14:18.537Z,96646.00
2018-11-25T14:16:49.056Z,96638.00
2018-11-25T14:19:19.512Z,96631.00
2018-11-25T14:21:49.896Z,96629.00
2018-11-25T14:24:20.462Z,96622.00
2018-11-25T14:26:58.999Z,96618.00
2018-11-25T14:29:30.158Z,96619.00
2018-11-25T14:32:00.605Z,96613.00
2018-11-25T14:34:31.080Z,96619.00
2018-11-25T14:37:01.578Z,96611.00
2018-11-25T14:39:32.000Z,96609.00
2018-11-25T14:42:02.429Z,96609.00
2018-11-25T14:44:32.713Z,96600.00
2018-11-25T14:47:03.132Z,96601.00
2018-11-25T14:49:33.788Z,96600.00
2018-11-25T14:52:04.398Z,96596.00
2018-11-25T14:54:34.771Z,96594.00
2018-11-25T14:57:05.493Z,96591.00
2018-11-25T14:59:35.805Z,96587.00
2018-11-25T15:02:06.104Z,96583.00
2018-11-25T15:04:36.596Z,96579.00
2018-11-25T15:07:07.156Z,96576.00
2018-11-25T15:09:38.328Z,96575.00
2018-11-25T15:12:08.714Z,96570.00
2018-11-25T15:14:39.780Z,96568.00
2018-11-25T15:17:10.176Z,96563.00
2018-11-25T15:19:41.499Z,96563.00
2018-11-25T15:22:11.825Z,96555.00
2018-11-25T15:24:42.273Z,96553.00
2018-11-25T15:27:12.802Z,96556.00
2018-11-25T15:29:43.155Z,96549.00
2018-11-25T15:32:13.638Z,96548.00
2018-11-25T15:34:44.346Z,96544.00
2018-11-25T15:37:15.435Z,96547.00
2018-11-25T15:39:46.544Z,96541.00
2018-11-25T15:42:16.967Z,96541.00
2018-11-25T15:44:47.570Z,96546.00
2018-11-25T15:47:17.810Z,96544.00
2018-11-25T15:49:48.398Z,96535.00
2018-11-25T15:52:18.984Z,96542.00
2018-11-25T15:54:49.419Z,96540.00
2018-11-25T15:57:19.795Z,96547.00
2018-11-25T15:59:50.155Z,96539.00
2018-11-25T16:02:20.732Z,96540.00
2018-11-25T16:04:50.960Z,96542.00
2018-11-25T16:07:21.359Z,96537.00
2018-11-25T16:09:51.596Z,96535.00
2018-11-25T16:12:22.046Z,96532.00
2018-11-25T16:14:52.639Z,96528.00
2018-11-25T16:17:22.918Z,96527.00
2018-11-25T16:19:53.352Z,96525.00
2018-11-25T16:22:23.738Z,96522.00
2018-11-25T16:24:54.947Z,96519.00
2018-11-25T16:27:25.499Z,96522.00
2018-11-25T16:29:55.845Z,96516.00
2018-11-25T16:32:26.188Z,96514.00
2018-11-25T16:34:56.508Z,96515.00
2018-11-25T16:37:26.932Z,96518.00
2018-11-25T16:39:57.391Z,96511.00
2018-11-25T16:42:27.745Z,96510.00
2018-11-25T16:44:58.140Z,96508.00
2018-11-25T16:47:28.699Z,96499.00
2018-11-25T16:49:59.084Z,96496.00
2018-11-25T16:52:29.445Z,96499.00
2018-11-25T16:54:59.751Z,96495.00
2018-11-25T16:57:30.420Z,96495.00
2018-11-25T17:00:00.807Z,96494.00
2018-11-25T17:02:31.060Z,96491.00
2018-11-25T17:05:01.477Z,96491.00
2018-11-25T17:07:31.914Z,96486.00
2018-11-25T17:10:02.171Z,96485.00
2018-11-25T17:12:32.768Z,96483.00
2018-11-25T17:15:03.130Z,96483.00
2018-11-25T17:17:33.425Z,96479.00
2018-11-25T17:20:03.909Z,96477.00
2018-11-25T17:22:34.463Z,96475.00
2018-11-25T17:25:05.289Z,96474.00
2018-11-25T17:27:35.481Z,96476.00
2018-11-25T17:30:09.519Z,96470.00
2018-11-25T17:32:39.967Z,96473.00
2018-11-25T17:35:23.460Z,96467.00
2018-11-25T17:37:53.823Z,96463.00
2018-11-25T17:40:24.154Z,96461.00
2018-11-25T17:42:54.725Z,96458.00
2018-11-25T17:45:27.876Z,96449.00
2018-11-25T17:47:58.300Z,96451.00
2018-11-25T17:50:32.102Z,96453.00
2018-11-25T17:53:02.793Z,96453.00
2018-11-25T17:55:33.797Z,96449.00
2018-11-25T17:58:05.723Z,96431.00
2018-11-25T18:00:50.557Z,96451.00
2018-11-25T18:03:24.017Z,96440.00
2018-11-25T18:05:54.609Z,96442.00
2018-11-25T18:08:25.080Z,96442.00
2018-11-25T18:10:55.972Z,96441.00
2018-11-25T18:13:31.567Z,96438.00
2018-11-25T18:16:05.446Z,96433.00
2018-11-25T18:18:41.030Z,96433.00
2018-11-25T18:21:15.226Z,96427.00
2018-11-25T18:23:46.881Z,96426.00
2018-11-25T18:26:17.666Z,96422.00
2018-11-25T18:28:51.109Z,96424.00
2018-11-25T18:31:22.091Z,96421.00
2018-11-25T18:33:52.794Z,96423.00
2018-11-25T18:36:27.339Z,96420.00
2018-11-25T18:38:57.961Z,96418.00
2018-11-25T18:41:28.432Z,96417.00
2018-11-25T18:44:00.068Z,96418.00
2018-11-25T18:46:30.474Z,96408.00
2018-11-25T18:49:01.109Z,96404.00
2018-11-25T18:51:31.423Z,96410.00
2018-11-25T18:54:01.750Z,96409.00
2018-11-25T18:56:32.091Z,96404.00
2018-11-25T18:59:02.560Z,96397.00
2018-11-25T19:01:58.696Z,96401.00
2018-11-25T19:04:30.107Z,96403.00
2018-11-25T19:07:01.192Z,96396.00
2018-11-25T19:09:31.704Z,96400.00
2018-11-25T19:12:02.506Z,96401.00
2018-11-25T19:14:32.827Z,96399.00
2018-11-25T19:17:03.922Z,96391.00
2018-11-25T19:19:34.785Z,96387.00
2018-11-25T19:22:06.168Z,96387.00
2018-11-25T19:24:36.389Z,96384.00
2018-11-25T19:27:08.323Z,96382.00
2018-11-25T19:29:38.655Z,96382.00
2018-11-25T19:32:09.310Z,96383.00
2018-11-25T19:34:39.911Z,96383.00
2018-11-25T19:37:10.380Z,96378.00
2018-11-25T19:39:40.899Z,96374.00
2018-11-25T19:42:11.352Z,96376.00
2018-11-25T19:44:42.149Z,96368.00
2018-11-25T19:47:12.642Z,96363.00
2018-11-25T19:49:43.289Z,96358.00
2018-11-25T19:52:13.920Z,96358.00
2018-11-25T19:54:44.332Z,96355.00
2018-11-25T19:57:14.584Z,96358.00
2018-11-25T19:59:45.149Z,96356.00
2018-11-25T20:02:15.605Z,96357.00
2018-11-25T20:04:45.903Z,96357.00
2018-11-25T20:07:16.342Z,96361.00
2018-11-25T20:09:46.679Z,96354.00
2018-11-25T20:12:17.213Z,96355.00
2018-11-25T20:14:47.689Z,96351.00
2018-11-25T20:17:22.930Z,96351.00
2018-11-25T20:19:53.559Z,96348.00
2018-11-25T20:22:24.836Z,96346.00
2018-11-25T20:24:55.202Z,96346.00
2018-11-25T20:27:38.336Z,96342.00
2018-11-25T20:30:11.914Z,96341.00
2018-11-25T20:32:47.580Z,96340.00
2018-11-25T20:35:18.201Z,96340.00
2018-11-25T20:37:53.540Z,96336.00
2018-11-25T20:40:23.977Z,96336.00
2018-11-25T20:42:54.392Z,96334.00
2018-11-25T20:45:31.285Z,96330.00
2018-11-25T20:48:01.403Z,96323.00
2018-11-25T20:50:31.739Z,96319.00
2018-11-25T20:53:06.995Z,96321.00
2018-11-25T20:55:37.873Z,96315.00
2018-11-25T20:58:09.661Z,96313.00
2018-11-25T21:00:41.265Z,96311.00
2018-11-25T21:03:12.951Z,96313.00
2018-11-25T21:05:43.274Z,96308.00
2018-11-25T21:08:13.560Z,96306.00
2018-11-25T21:10:44.052Z,96301.00
2018-11-25T21:13:14.347Z,96300.00
2018-11-25T21:15:44.654Z,96297.00
2018-11-25T21:18:15.064Z,96302.00
2018-11-25T21:20:51.021Z,96300.00
2018-11-25T21:23:15.887Z,96294.00
2018-11-25T21:25:46.213Z,96292.00
2018-11-25T21:28:16.740Z,96292.00
2018-11-25T21:30:47.272Z,96288.00
2018-11-25T21:33:17.566Z,96291.00
2018-11-25T21:35:47.970Z,96283.00
2018-11-25T21:38:18.446Z,96286.00
2018-11-25T21:40:48.806Z,96276.00
2018-11-25T21:43:19.162Z,96274.00
2018-11-25T21:45:49.626Z,96270.00
2018-11-25T21:48:20.036Z,96260.00
2018-11-25T21:50:50.293Z,96263.00
2018-11-25T21:53:20.856Z,96268.00
2018-11-25T21:58:21.733Z,96262.00
2018-11-25T22:00:52.144Z,96259.00
2018-11-25T22:03:22.481Z,96262.00
2018-11-25T22:05:52.810Z,96259.00
2018-11-25T22:08:23.301Z,96264.00
2018-11-25T22:10:53.820Z,96257.00
2018-11-25T22:13:24.117Z,96255.00
2018-11-25T22:15:54.482Z,96256.00
2018-11-25T22:18:24.947Z,96250.00
2018-11-25T22:20:55.596Z,96253.00
2018-11-25T22:23:26.001Z,96245.00
2018-11-25T22:25:56.455Z,96245.00
2018-11-25T22:28:27.031Z,96241.00
2018-11-25T22:30:57.615Z,96240.00
2018-11-25T22:33:27.765Z,96237.00
2018-11-25T22:35:58.244Z,96231.00
2018-11-25T22:38:28.676Z,96228.00
2018-11-25T22:40:59.233Z,96223.00
2018-11-25T22:43:29.753Z,96220.00
2018-11-25T22:45:59.947Z,96220.00
2018-11-25T22:48:30.397Z,96214.00
2018-11-25T22:51:00.953Z,96216.00
2018-11-25T22:53:31.208Z,96215.00
2018-11-25T22:56:01.602Z,96208.00
2018-11-25T22:58:31.798Z,96209.00
2018-11-25T23:01:02.263Z,96205.00
2018-11-25T23:03:32.458Z,96200.00
2018-11-25T23:06:19.236Z,96195.00
2018-11-25T23:08:49.529Z,96194.00
2018-11-25T23:11:19.992Z,96191.00
2018-11-25T23:13:50.330Z,96188.00
2018-11-25T23:16:20.873Z,96191.00
2018-11-25T23:18:51.433Z,96188.00
2018-11-25T23:21:21.704Z,96185.00
2018-11-25T23:23:51.978Z,96177.00
2018-11-25T23:26:22.431Z,96180.00
2018-11-25T23:28:52.648Z,96177.00
2018-11-25T23:31:23.143Z,96173.00
2018-11-25T23:33:53.688Z,96175.00
2018-11-25T23:36:24.150Z,96173.00
2018-11-25T23:38:54.359Z,96170.00
2018-11-25T23:41:24.697Z,96164.00
2018-11-25T23:43:55.806Z,96156.00
2018-11-25T23:46:26.059Z,96154.00
2018-11-25T23:48:56.598Z,96152.00
2018-11-25T23:51:26.786Z,96145.00
2018-11-25T23:53:57.404Z,96145.00
2018-11-25T23:56:27.730Z,96141.00
2018-11-25T23:58:58.095Z,96142.00
